Etusivu
METAR-TAF:

METAR-TAF

Lentoasemat :

Fourchambault

Nevers, Ranska

Leveyspiiri: 47-00N, Pituuspiiri: 003-06E, korkeus merenpinnasta: 180 m

Tämänhetkinen sää

Tämä raportti tehtiin 10 tuntia ja 2 minuuttia sitten, kello 18.00 UTC
Tuuli 7 kn pohjoisesta
Lämpötila 8°C
Kosteus 71%
Ilmanpaine 1024 hPa
Näkyvyys 10 km tai enemmän
ei pilviä alle 1500 m:ssä eikä cumulonimbus-pilviä

METAR: LFQG 181800Z AUTO 01007KT CAVOK 08/03 Q1024

Aika: 05:02 (04:02 UTC)


TAF: puuttuu

Säähavainnot ja -ennusteet yli 4000 lentoasemalta (METAR- ja TAF-raportit).

Käytössä olevat sääasemat on merkitty karttaan keltaisilla ja punaisilla pisteillä.

Aseta hiiri pisteen päälle nähdäksesi sääaseman nimen.

Klikkaa sitten nähdäksesi säähavainnot ja -ennusteet.

Kartan vaihtaminen: klikkaa mustalla rastilla varustettuja vihreitä pisteitä, niin voit zoomata sisään; viivalla varustettua vihreää pistettä, niin voit zoomata ulos tai vihreitä nuolia, niin pääset viereisille kartoille.


METAR-TAF: